Time;durP1;ratioP1;P1;durP2;ratioP2;P2;SDS_P1;SDS_P2;PMS_P1;PMS_P2;Temp;Humidity;BMP_temperature;BMP_pressure;BME280_temperature;BME280_humidity;BME280_pressure;Samples;Min_cycle;Max_cycle;Signal;HPM_P1;HPM_P2
2022/10/31 00:02:16;;;;;;;12.10;6.38;;;;;;;;;;6282883;22;20010;-92
2022/10/31 00:04:42;;;;;;;9.95;5.63;;;;;;;;;;6282213;22;20037;-91
2022/10/31 00:07:08;;;;;;;11.07;6.35;;;;;;;;;;6282410;22;20018;-93
2022/10/31 00:09:35;;;;;;;12.32;6.72;;;;;;;;;;6281855;22;19996;-91
2022/10/31 00:12:01;;;;;;;11.82;6.45;;;;;;;;;;6282657;22;20008;-92
2022/10/31 00:14:27;;;;;;;11.65;7.07;;;;;;;;;;6282633;22;20031;-92
2022/10/31 00:16:53;;;;;;;14.27;6.57;;;;;;;;;;6282424;22;20410;-91
2022/10/31 00:19:19;;;;;;;13.68;6.93;;;;;;;;;;6282245;22;20026;-90
2022/10/31 00:21:45;;;;;;;12.20;7.15;;;;;;;;;;6281621;22;20082;-92
2022/10/31 00:24:11;;;;;;;12.43;6.30;;;;;;;;;;6282294;22;20003;-91
2022/10/31 00:26:37;;;;;;;12.82;6.45;;;;;;;;;;6281530;22;20073;-92
2022/10/31 00:29:03;;;;;;;15.38;7.00;;;;;;;;;;6281992;22;19999;-93
2022/10/31 00:31:30;;;;;;;11.68;6.28;;;;;;;;;;6282383;22;20082;-92
2022/10/31 00:33:56;;;;;;;12.45;7.15;;;;;;;;;;6282407;22;19999;-93
2022/10/31 00:36:22;;;;;;;11.75;6.80;;;;;;;;;;6282428;22;20057;-91
2022/10/31 00:38:48;;;;;;;12.38;6.38;;;;;;;;;;6282370;22;19999;-91
2022/10/31 00:41:16;;;;;;;12.38;6.82;;;;;;;;;;6282074;22;20004;-92
2022/10/31 00:43:42;;;;;;;14.32;6.80;;;;;;;;;;6282636;22;20000;-90
2022/10/31 00:46:09;;;;;;;11.10;5.60;;;;;;;;;;6282126;22;20007;-91
2022/10/31 00:48:35;;;;;;;11.05;6.30;;;;;;;;;;6281918;22;20003;-90
2022/10/31 00:51:01;;;;;;;12.73;6.38;;;;;;;;;;6282425;22;19999;-92
2022/10/31 00:53:27;;;;;;;13.68;7.38;;;;;;;;;;6281857;22;20039;-92
2022/10/31 00:55:53;;;;;;;10.98;5.53;;;;;;;;;;6281727;22;20030;-91
2022/10/31 00:58:19;;;;;;;10.98;5.60;;;;;;;;;;6281978;22;20013;-90
2022/10/31 01:00:47;;;;;;;11.20;5.82;;;;;;;;;;6282721;22;20031;-90
2022/10/31 01:03:13;;;;;;;10.80;5.53;;;;;;;;;;6283987;22;20031;-91
2022/10/31 01:05:39;;;;;;;11.02;6.65;;;;;;;;;;6283893;22;20082;-92
2022/10/31 01:08:06;;;;;;;11.82;5.80;;;;;;;;;;6284673;22;20008;-92
2022/10/31 01:10:32;;;;;;;10.90;5.70;;;;;;;;;;6284685;22;20057;-93
2022/10/31 01:12:58;;;;;;;9.40;5.00;;;;;;;;;;6283950;22;20340;-92
2022/10/31 01:15:24;;;;;;;10.82;5.40;;;;;;;;;;6283970;22;20003;-91
2022/10/31 01:17:51;;;;;;;16.42;5.18;;;;;;;;;;6283387;22;20007;-91
2022/10/31 01:20:17;;;;;;;10.40;5.25;;;;;;;;;;6282860;22;20008;-90
2022/10/31 01:22:43;;;;;;;12.45;5.60;;;;;;;;;;6282442;22;20007;-91
2022/10/31 01:25:10;;;;;;;12.13;5.43;;;;;;;;;;6282761;22;20046;-92
2022/10/31 01:27:36;;;;;;;8.90;4.97;;;;;;;;;;6285227;22;20015;-93
2022/10/31 01:30:02;;;;;;;9.80;5.00;;;;;;;;;;6283996;22;20003;-92
2022/10/31 01:32:29;;;;;;;10.13;4.80;;;;;;;;;;6283988;22;20007;-91
2022/10/31 01:34:55;;;;;;;12.15;5.35;;;;;;;;;;6284214;22;20003;-91
2022/10/31 01:37:21;;;;;;;10.15;5.68;;;;;;;;;;6283319;22;20421;-91
2022/10/31 01:40:24;;;;;;;9.27;4.80;;;;;;;;;;6286075;22;20011;-91
2022/10/31 01:42:50;;;;;;;10.30;4.70;;;;;;;;;;6283727;22;20033;-92
2022/10/31 01:51:16;;;;;;;9.98;4.82;;;;;;;;;;6270010;22;20073;-91
2022/10/31 01:53:46;;;;;;;8.30;4.65;;;;;;;;;;6316107;22;20003;-91
2022/10/31 01:56:13;;;;;;;8.25;5.10;;;;;;;;;;6315583;22;20010;-90
2022/10/31 01:58:39;;;;;;;9.98;4.85;;;;;;;;;;6314685;22;20003;-90
2022/10/31 02:01:06;;;;;;;13.45;4.90;;;;;;;;;;6314348;22;20007;-91
2022/10/31 02:03:32;;;;;;;8.23;4.60;;;;;;;;;;6314271;22;20057;-91
2022/10/31 02:05:59;;;;;;;8.57;4.40;;;;;;;;;;6314612;22;20011;-90
2022/10/31 02:08:33;;;;;;;7.05;3.85;;;;;;;;;;6314719;22;20058;-91
2022/10/31 02:11:01;;;;;;;9.25;5.18;;;;;;;;;;6313858;22;20434;-90
2022/10/31 02:13:28;;;;;;;8.90;4.60;;;;;;;;;;6313401;22;20018;-91
2022/10/31 02:15:55;;;;;;;9.75;4.70;;;;;;;;;;6313713;22;20435;-91
2022/10/31 02:18:22;;;;;;;10.95;4.63;;;;;;;;;;6314053;22;20014;-91
2022/10/31 02:20:54;;;;;;;7.55;4.35;;;;;;;;;;6314454;22;20014;-92
2022/10/31 02:23:29;;;;;;;9.15;4.88;;;;;;;;;;6314460;22;20131;-91
2022/10/31 02:26:14;;;;;;;9.15;5.28;;;;;;;;;;6314534;22;20011;-92
2022/10/31 02:28:40;;;;;;;9.40;5.00;;;;;;;;;;6314478;22;20088;-91
2022/10/31 02:31:22;;;;;;;9.75;4.95;;;;;;;;;;6313987;22;20003;-91
2022/10/31 02:33:48;;;;;;;9.68;5.03;;;;;;;;;;6314552;22;20003;-91
2022/10/31 02:36:23;;;;;;;8.15;4.82;;;;;;;;;;6314215;22;20011;-92
2022/10/31 02:38:50;;;;;;;12.77;5.05;;;;;;;;;;6314209;22;20086;-91
2022/10/31 02:41:31;;;;;;;10.07;5.00;;;;;;;;;;6314042;22;20006;-90
2022/10/31 02:43:57;;;;;;;12.80;4.78;;;;;;;;;;6314508;22;20014;-91
2022/10/31 02:46:25;;;;;;;11.43;5.38;;;;;;;;;;6314086;22;20101;-91
2022/10/31 02:48:54;;;;;;;14.55;4.70;;;;;;;;;;6314132;22;20002;-91
2022/10/31 02:51:21;;;;;;;9.05;4.35;;;;;;;;;;6341020;22;20045;-90
2022/10/31 02:53:47;;;;;;;8.95;4.30;;;;;;;;;;6314238;22;20006;-91
2022/10/31 02:56:15;;;;;;;8.80;4.57;;;;;;;;;;6313241;22;20006;-92
2022/10/31 02:58:45;;;;;;;8.85;4.50;;;;;;;;;;6314437;22;20106;-91
2022/10/31 03:01:11;;;;;;;14.07;4.72;;;;;;;;;;6313868;22;19998;-90
2022/10/31 03:03:54;;;;;;;8.77;3.65;;;;;;;;;;6312959;22;20007;-90
2022/10/31 03:06:26;;;;;;;10.32;5.30;;;;;;;;;;6313008;22;20006;-91
2022/10/31 03:09:04;;;;;;;9.00;4.32;;;;;;;;;;6312558;22;20013;-92
2022/10/31 03:11:33;;;;;;;9.43;4.03;;;;;;;;;;6313251;22;20021;-91
2022/10/31 03:14:21;;;;;;;9.57;4.97;;;;;;;;;;6313910;22;20372;-91
2022/10/31 03:16:51;;;;;;;9.52;4.40;;;;;;;;;;6312904;22;20021;-91
2022/10/31 03:19:24;;;;;;;10.32;4.80;;;;;;;;;;6314023;22;20007;-90
2022/10/31 03:21:56;;;;;;;10.20;4.10;;;;;;;;;;6313864;22;19999;-92
2022/10/31 03:24:25;;;;;;;10.45;4.68;;;;;;;;;;6307077;22;20007;-90
2022/10/31 03:26:53;;;;;;;11.57;4.65;;;;;;;;;;6313269;22;20077;-90
2022/10/31 03:29:22;;;;;;;9.40;4.57;;;;;;;;;;6313431;22;20009;-91
2022/10/31 03:31:50;;;;;;;7.88;3.47;;;;;;;;;;6313566;22;20085;-90
2022/10/31 03:34:19;;;;;;;8.82;3.63;;;;;;;;;;6313580;22;20148;-92
2022/10/31 03:36:46;;;;;;;12.55;3.88;;;;;;;;;;6313404;22;20088;-91
2022/10/31 03:39:13;;;;;;;10.52;4.10;;;;;;;;;;6313455;22;20003;-91
2022/10/31 03:41:42;;;;;;;10.18;3.90;;;;;;;;;;6313553;22;20006;-91
2022/10/31 03:44:18;;;;;;;11.75;4.10;;;;;;;;;;6313983;22;20126;-89
2022/10/31 03:46:47;;;;;;;9.90;4.30;;;;;;;;;;6313386;22;20014;-91
2022/10/31 03:49:13;;;;;;;7.93;3.97;;;;;;;;;;6313146;22;20332;-91
2022/10/31 03:51:40;;;;;;;6.57;3.53;;;;;;;;;;6312987;22;20026;-91
2022/10/31 03:54:15;;;;;;;7.35;3.63;;;;;;;;;;6312843;22;20048;-91
2022/10/31 03:56:43;;;;;;;7.72;3.47;;;;;;;;;;6312508;22;20002;-91
2022/10/31 03:59:17;;;;;;;5.72;3.15;;;;;;;;;;6312819;22;20003;-92
2022/10/31 04:01:45;;;;;;;7.30;2.53;;;;;;;;;;6312871;22;20420;-91
2022/10/31 04:04:11;;;;;;;5.63;2.60;;;;;;;;;;6313173;22;20010;-91
2022/10/31 04:06:39;;;;;;;6.43;2.92;;;;;;;;;;6313190;22;20085;-92
2022/10/31 04:09:07;;;;;;;6.10;2.83;;;;;;;;;;6340579;22;20492;-91
2022/10/31 04:11:35;;;;;;;6.20;2.88;;;;;;;;;;6312802;22;20014;-91
2022/10/31 04:14:02;;;;;;;8.23;3.08;;;;;;;;;;6313129;22;20064;-91
2022/10/31 04:16:28;;;;;;;4.32;2.40;;;;;;;;;;6313030;22;20007;-89
2022/10/31 04:18:55;;;;;;;6.15;3.00;;;;;;;;;;6312759;22;20007;-91
2022/10/31 04:21:28;;;;;;;4.90;2.28;;;;;;;;;;6313311;22;20009;-90
2022/10/31 04:23:54;;;;;;;5.60;2.67;;;;;;;;;;6312769;22;20428;-92
2022/10/31 04:26:20;;;;;;;4.53;2.65;;;;;;;;;;6312770;22;20015;-91
2022/10/31 04:28:46;;;;;;;6.75;2.70;;;;;;;;;;6312416;22;20595;-91
2022/10/31 04:31:13;;;;;;;5.15;2.72;;;;;;;;;;6313107;22;20007;-91
2022/10/31 04:33:39;;;;;;;6.22;2.67;;;;;;;;;;6311920;22;20424;-90
2022/10/31 04:36:05;;;;;;;9.45;3.28;;;;;;;;;;6312429;22;20013;-91
2022/10/31 04:38:31;;;;;;;6.85;3.58;;;;;;;;;;6313058;22;19999;-91
2022/10/31 04:40:57;;;;;;;7.18;3.35;;;;;;;;;;6312853;22;20011;-91
2022/10/31 04:43:23;;;;;;;7.57;3.33;;;;;;;;;;6340800;22;20408;-91
2022/10/31 04:45:49;;;;;;;9.38;2.63;;;;;;;;;;6312783;22;20010;-91
2022/10/31 04:48:15;;;;;;;6.38;3.20;;;;;;;;;;6312828;22;20384;-90
2022/10/31 04:50:41;;;;;;;9.30;3.20;;;;;;;;;;6313135;22;20015;-92
2022/10/31 04:53:08;;;;;;;7.53;2.80;;;;;;;;;;6312665;22;20469;-93
2022/10/31 04:55:34;;;;;;;6.03;2.70;;;;;;;;;;6313034;22;20056;-92
2022/10/31 04:58:00;;;;;;;5.50;2.53;;;;;;;;;;6312853;22;20003;-91
2022/10/31 05:00:26;;;;;;;5.85;2.50;;;;;;;;;;6312367;22;20007;-90
2022/10/31 05:02:53;;;;;;;5.03;2.28;;;;;;;;;;6312256;22;19999;-92
2022/10/31 05:05:20;;;;;;;5.30;2.50;;;;;;;;;;6312921;22;20034;-92
2022/10/31 05:07:48;;;;;;;9.48;2.83;;;;;;;;;;6312178;22;20424;-90
2022/10/31 05:10:16;;;;;;;5.40;2.50;;;;;;;;;;6312519;22;19999;-90
2022/10/31 05:12:52;;;;;;;10.98;2.65;;;;;;;;;;6313206;22;20052;-92
2022/10/31 05:15:19;;;;;;;4.15;2.33;;;;;;;;;;6313247;22;20017;-93
2022/10/31 05:17:45;;;;;;;3.90;2.20;;;;;;;;;;6312985;22;20002;-90
2022/10/31 05:20:12;;;;;;;6.43;2.47;;;;;;;;;;6314452;22;20003;-93
2022/10/31 05:22:42;;;;;;;6.38;1.95;;;;;;;;;;6313075;22;20007;-91
2022/10/31 05:25:08;;;;;;;4.25;2.22;;;;;;;;;;6313217;22;20003;-93
2022/10/31 05:27:35;;;;;;;4.82;2.28;;;;;;;;;;6312531;22;20010;-92
2022/10/31 05:30:01;;;;;;;4.47;2.10;;;;;;;;;;6312147;22;20033;-92
2022/10/31 05:32:27;;;;;;;4.88;2.28;;;;;;;;;;6291850;22;20007;-92
2022/10/31 05:34:53;;;;;;;5.07;2.20;;;;;;;;;;6316925;22;20003;-94
2022/10/31 05:37:19;;;;;;;5.97;2.33;;;;;;;;;;6314223;22;20309;-94
2022/10/31 05:39:54;;;;;;;4.13;2.10;;;;;;;;;;6316466;22;20007;-96
2022/10/31 05:42:24;;;;;;;5.00;2.10;;;;;;;;;;6315884;22;20062;-94
2022/10/31 05:44:51;;;;;;;4.07;2.00;;;;;;;;;;6336575;22;20436;-93
2022/10/31 05:47:17;;;;;;;6.25;2.40;;;;;;;;;;6315120;22;20011;-95
2022/10/31 05:49:43;;;;;;;11.90;2.85;;;;;;;;;;6315278;22;20003;-96
2022/10/31 05:52:10;;;;;;;6.75;2.80;;;;;;;;;;6289192;22;20360;-95
2022/10/31 05:54:36;;;;;;;6.38;2.70;;;;;;;;;;6314390;22;19999;-94
2022/10/31 05:57:02;;;;;;;5.35;2.78;;;;;;;;;;6315309;22;20002;-95
2022/10/31 05:59:28;;;;;;;6.88;2.75;;;;;;;;;;6315301;22;20470;-94
2022/10/31 06:02:00;;;;;;;8.40;2.83;;;;;;;;;;6314900;22;20014;-96
2022/10/31 06:04:36;;;;;;;7.53;3.10;;;;;;;;;;6316429;22;20007;-95
2022/10/31 06:07:02;;;;;;;6.47;3.20;;;;;;;;;;6314749;22;20015;-94
2022/10/31 06:09:28;;;;;;;5.32;2.72;;;;;;;;;;6316417;22;20071;-96
2022/10/31 06:11:59;;;;;;;6.03;2.83;;;;;;;;;;6321060;22;20029;-96
2022/10/31 06:14:25;;;;;;;4.88;2.70;;;;;;;;;;6292618;22;20003;-95
2022/10/31 06:16:51;;;;;;;5.00;2.72;;;;;;;;;;6318028;22;20006;-96
2022/10/31 06:19:17;;;;;;;4.78;2.47;;;;;;;;;;6317051;22;20006;-96
2022/10/31 06:21:46;;;;;;;5.95;2.40;;;;;;;;;;6320723;22;20003;-94
2022/10/31 06:24:12;;;;;;;5.25;2.55;;;;;;;;;;6311313;22;19999;-95
2022/10/31 06:26:38;;;;;;;4.82;2.83;;;;;;;;;;6317754;22;20018;-93
2022/10/31 06:29:04;;;;;;;7.13;2.92;;;;;;;;;;6315146;22;20034;-93
2022/10/31 06:31:30;;;;;;;6.40;2.60;;;;;;;;;;6315374;22;20093;-95
2022/10/31 06:34:05;;;;;;;5.50;2.53;;;;;;;;;;6316275;22;20003;-96
2022/10/31 06:36:31;;;;;;;3.95;1.95;;;;;;;;;;6316065;22;20066;-92
2022/10/31 06:39:01;;;;;;;4.90;2.72;;;;;;;;;;6320439;22;20427;-96
2022/10/31 06:41:27;;;;;;;5.15;2.47;;;;;;;;;;6317530;22;20006;-95
2022/10/31 06:43:53;;;;;;;6.50;2.60;;;;;;;;;;6314181;22;20336;-91
2022/10/31 06:46:19;;;;;;;8.60;3.10;;;;;;;;;;6313326;22;20044;-94
2022/10/31 06:48:45;;;;;;;7.05;3.35;;;;;;;;;;6314605;22;20027;-92
2022/10/31 06:51:12;;;;;;;8.75;3.55;;;;;;;;;;6314063;22;20038;-93
2022/10/31 06:53:38;;;;;;;7.80;3.83;;;;;;;;;;6314797;22;20078;-94
2022/10/31 06:56:04;;;;;;;12.38;3.67;;;;;;;;;;6313790;22;20078;-94
2022/10/31 06:58:30;;;;;;;8.27;4.40;;;;;;;;;;6315762;22;20007;-93
2022/10/31 07:00:59;;;;;;;8.13;4.07;;;;;;;;;;6314251;22;20082;-92
2022/10/31 07:03:25;;;;;;;7.97;3.05;;;;;;;;;;6341351;22;20049;-90
2022/10/31 07:05:51;;;;;;;7.60;3.45;;;;;;;;;;6313998;22;20071;-92
2022/10/31 07:08:17;;;;;;;7.25;4.15;;;;;;;;;;6314124;22;20007;-92
2022/10/31 07:10:44;;;;;;;6.60;3.30;;;;;;;;;;6314293;22;19999;-93
2022/10/31 07:13:14;;;;;;;7.43;3.58;;;;;;;;;;6316587;22;20006;-92
2022/10/31 07:15:41;;;;;;;9.27;3.75;;;;;;;;;;6316020;22;20005;-92
2022/10/31 07:18:08;;;;;;;7.10;3.60;;;;;;;;;;6313485;22;20002;-91
2022/10/31 07:20:34;;;;;;;7.60;4.03;;;;;;;;;;6314278;22;20006;-93
2022/10/31 07:23:00;;;;;;;5.57;3.55;;;;;;;;;;6313814;22;20420;-91
2022/10/31 07:25:27;;;;;;;9.45;3.65;;;;;;;;;;6313906;22;19999;-94
2022/10/31 07:27:53;;;;;;;7.25;3.70;;;;;;;;;;6313942;22;20083;-94
2022/10/31 07:30:19;;;;;;;6.93;3.45;;;;;;;;;;6314018;22;19998;-91
2022/10/31 07:32:48;;;;;;;7.93;3.90;;;;;;;;;;6313634;22;20136;-94
2022/10/31 07:35:16;;;;;;;6.65;3.58;;;;;;;;;;6314088;22;20003;-93
2022/10/31 07:37:42;;;;;;;7.95;3.28;;;;;;;;;;6314051;22;20011;-94
2022/10/31 07:40:08;;;;;;;6.30;3.35;;;;;;;;;;6314748;22;20086;-94
2022/10/31 07:42:38;;;;;;;8.77;3.70;;;;;;;;;;6314107;22;19999;-93
2022/10/31 07:45:05;;;;;;;6.97;3.58;;;;;;;;;;6313834;22;20340;-94
2022/10/31 07:47:38;;;;;;;6.93;3.40;;;;;;;;;;6313736;22;20453;-90
2022/10/31 07:50:05;;;;;;;7.70;3.70;;;;;;;;;;6313700;22;20011;-94
2022/10/31 07:52:31;;;;;;;5.15;3.10;;;;;;;;;;6313381;22;20068;-92
2022/10/31 07:54:57;;;;;;;5.50;2.92;;;;;;;;;;6315123;22;20014;-92
2022/10/31 07:57:24;;;;;;;6.43;2.90;;;;;;;;;;6314736;22;19999;-94
2022/10/31 07:59:50;;;;;;;4.72;2.50;;;;;;;;;;6313720;22;20014;-96
2022/10/31 08:02:16;;;;;;;5.78;2.72;;;;;;;;;;6314023;22;20084;-94
2022/10/31 08:04:42;;;;;;;5.15;2.47;;;;;;;;;;6313495;22;20068;-90
2022/10/31 08:07:08;;;;;;;6.03;2.65;;;;;;;;;;6313410;22;20019;-92
2022/10/31 08:09:34;;;;;;;5.00;2.70;;;;;;;;;;6313642;22;20002;-94
2022/10/31 08:12:01;;;;;;;5.00;3.10;;;;;;;;;;6312863;22;20003;-91
2022/10/31 08:14:27;;;;;;;6.15;3.38;;;;;;;;;;6313451;22;19999;-92
2022/10/31 08:16:53;;;;;;;6.13;2.72;;;;;;;;;;6312847;22;19999;-88
2022/10/31 08:19:20;;;;;;;6.93;3.10;;;;;;;;;;6312667;22;20093;-88
2022/10/31 08:21:46;;;;;;;4.63;2.63;;;;;;;;;;6312358;22;20423;-89
2022/10/31 08:24:12;;;;;;;5.63;3.00;;;;;;;;;;6312508;22;20006;-89
2022/10/31 08:26:38;;;;;;;7.57;3.00;;;;;;;;;;6313128;22;20203;-90
2022/10/31 08:29:04;;;;;;;5.15;2.55;;;;;;;;;;6313763;22;20040;-93
2022/10/31 08:31:30;;;;;;;6.63;3.00;;;;;;;;;;6312352;22;20340;-88
2022/10/31 08:33:56;;;;;;;4.93;2.90;;;;;;;;;;6313067;22;20106;-90
2022/10/31 08:36:23;;;;;;;6.30;3.15;;;;;;;;;;6313084;22;20344;-89
2022/10/31 08:38:49;;;;;;;7.15;2.78;;;;;;;;;;6340552;22;20002;-91
2022/10/31 08:41:16;;;;;;;5.80;3.03;;;;;;;;;;6313100;22;20428;-89
2022/10/31 08:43:42;;;;;;;6.10;3.03;;;;;;;;;;6312973;22;20331;-90
2022/10/31 08:46:08;;;;;;;5.30;2.78;;;;;;;;;;6312612;22;20014;-91
2022/10/31 08:48:35;;;;;;;4.57;2.75;;;;;;;;;;6341009;22;19998;-90
2022/10/31 08:51:01;;;;;;;7.57;3.13;;;;;;;;;;6312980;22;20023;-92
2022/10/31 08:53:28;;;;;;;5.70;3.22;;;;;;;;;;6313199;22;20010;-93
2022/10/31 08:55:57;;;;;;;6.00;3.10;;;;;;;;;;6340828;22;20028;-89
2022/10/31 08:58:24;;;;;;;6.32;3.17;;;;;;;;;;6312378;22;20007;-88
2022/10/31 09:00:51;;;;;;;5.80;2.83;;;;;;;;;;6312138;22;20003;-89
2022/10/31 09:03:19;;;;;;;5.03;2.58;;;;;;;;;;6312708;22;20003;-92
2022/10/31 09:05:45;;;;;;;5.43;2.60;;;;;;;;;;6313021;22;19999;-90
2022/10/31 09:08:12;;;;;;;7.82;3.00;;;;;;;;;;6313003;22;20007;-89
2022/10/31 09:10:38;;;;;;;5.63;2.97;;;;;;;;;;6312655;22;20060;-89
2022/10/31 09:13:06;;;;;;;4.97;2.50;;;;;;;;;;6313665;22;20003;-89
2022/10/31 09:15:33;;;;;;;6.30;2.50;;;;;;;;;;6313006;22;20003;-89
2022/10/31 09:18:00;;;;;;;5.32;2.88;;;;;;;;;;6313722;22;20007;-88
2022/10/31 09:20:26;;;;;;;4.97;2.90;;;;;;;;;;6312986;22;20002;-90
2022/10/31 09:22:57;;;;;;;5.60;2.75;;;;;;;;;;6314829;22;20007;-91
2022/10/31 09:25:23;;;;;;;4.90;2.80;;;;;;;;;;6314180;22;20003;-91
2022/10/31 09:27:49;;;;;;;8.60;3.30;;;;;;;;;;6314790;22;20055;-89
2022/10/31 09:30:15;;;;;;;7.50;3.15;;;;;;;;;;6314609;22;19999;-90
2022/10/31 09:32:41;;;;;;;5.78;2.63;;;;;;;;;;6313960;22;20058;-90
2022/10/31 09:35:07;;;;;;;5.65;3.13;;;;;;;;;;6341465;22;20112;-91
2022/10/31 09:37:33;;;;;;;4.43;2.50;;;;;;;;;;6315008;22;19999;-92
2022/10/31 09:40:00;;;;;;;5.82;3.13;;;;;;;;;;6314462;22;20060;-91
2022/10/31 09:42:26;;;;;;;4.40;2.45;;;;;;;;;;6315182;22;20002;-90
2022/10/31 09:45:07;;;;;;;5.88;3.17;;;;;;;;;;6314041;22;20423;-90
2022/10/31 09:47:39;;;;;;;5.30;3.10;;;;;;;;;;6313806;22;20071;-90
2022/10/31 09:50:20;;;;;;;7.00;3.90;;;;;;;;;;6341739;22;20014;-91
2022/10/31 09:53:02;;;;;;;4.85;2.95;;;;;;;;;;6314415;22;20002;-92
2022/10/31 09:55:35;;;;;;;5.65;3.35;;;;;;;;;;6314512;22;20010;-90
2022/10/31 09:58:02;;;;;;;7.43;3.80;;;;;;;;;;6313854;22;20450;-90
2022/10/31 10:00:28;;;;;;;5.55;3.33;;;;;;;;;;6313878;22;20003;-90
2022/10/31 10:03:03;;;;;;;7.13;3.55;;;;;;;;;;6313995;22;20463;-89
2022/10/31 10:05:33;;;;;;;6.80;3.17;;;;;;;;;;6314109;22;20309;-90
2022/10/31 10:08:18;;;;;;;5.13;3.17;;;;;;;;;;6313444;22;20010;-89
2022/10/31 10:10:45;;;;;;;9.20;3.50;;;;;;;;;;6313247;22;20013;-88
2022/10/31 10:13:14;;;;;;;6.13;3.13;;;;;;;;;;6313068;22;20106;-89
2022/10/31 10:15:54;;;;;;;7.20;3.20;;;;;;;;;;6312824;22;20007;-88
2022/10/31 10:18:47;;;;;;;9.60;3.38;;;;;;;;;;6313539;22;19998;-91
2022/10/31 10:21:25;;;;;;;5.45;3.33;;;;;;;;;;6256710;22;20007;-90
2022/10/31 10:23:54;;;;;;;6.20;3.63;;;;;;;;;;6314609;22;20003;-90
2022/10/31 10:26:22;;;;;;;7.40;3.63;;;;;;;;;;6313273;22;20014;-92
2022/10/31 10:28:50;;;;;;;8.15;4.05;;;;;;;;;;6314751;22;20085;-90
2022/10/31 10:31:29;;;;;;;9.85;3.53;;;;;;;;;;6314337;22;20016;-93
2022/10/31 10:33:55;;;;;;;5.68;3.60;;;;;;;;;;6314218;22;20086;-93
2022/10/31 10:36:31;;;;;;;7.30;3.85;;;;;;;;;;6314683;22;20006;-92
2022/10/31 10:39:08;;;;;;;6.03;3.53;;;;;;;;;;6314918;22;20018;-94
2022/10/31 10:41:34;;;;;;;6.38;3.58;;;;;;;;;;6314052;22;20038;-91
2022/10/31 10:44:00;;;;;;;7.30;4.20;;;;;;;;;;6315772;22;20003;-92
2022/10/31 10:49:17;;;;;;;7.40;3.65;;;;;;;;;;6341864;22;20083;-90
2022/10/31 10:51:59;;;;;;;6.53;3.83;;;;;;;;;;6314011;22;20022;-91
2022/10/31 10:54:44;;;;;;;10.70;3.80;;;;;;;;;;6314561;22;20060;-89
2022/10/31 10:57:29;;;;;;;11.25;4.32;;;;;;;;;;6313888;22;20003;-90
2022/10/31 10:59:55;;;;;;;6.30;3.65;;;;;;;;;;6313951;22;20009;-91
2022/10/31 11:02:26;;;;;;;8.18;4.15;;;;;;;;;;6313926;22;20085;-89
2022/10/31 11:04:54;;;;;;;8.52;3.53;;;;;;;;;;6313629;22;20491;-92
2022/10/31 11:07:20;;;;;;;8.80;4.13;;;;;;;;;;6314220;22;20382;-91
2022/10/31 11:09:46;;;;;;;7.63;3.72;;;;;;;;;;6314311;22;20052;-91
2022/10/31 11:12:20;;;;;;;7.45;4.10;;;;;;;;;;6341647;22;20048;-90
2022/10/31 11:15:00;;;;;;;7.57;3.78;;;;;;;;;;6314148;22;20007;-91
2022/10/31 11:17:32;;;;;;;6.55;4.07;;;;;;;;;;6314353;22;19998;-94
2022/10/31 11:20:01;;;;;;;9.82;4.78;;;;;;;;;;6314684;22;20412;-93
2022/10/31 11:22:27;;;;;;;6.95;4.15;;;;;;;;;;6313955;22;20032;-93
2022/10/31 11:24:53;;;;;;;7.90;4.55;;;;;;;;;;6314033;22;20014;-94
2022/10/31 11:27:24;;;;;;;9.73;4.40;;;;;;;;;;6313081;22;20033;-92
2022/10/31 11:29:51;;;;;;;7.85;3.75;;;;;;;;;;6314014;22;20052;-93
2022/10/31 11:32:22;;;;;;;10.35;4.72;;;;;;;;;;6316170;22;20007;-93
2022/10/31 11:34:50;;;;;;;11.55;5.03;;;;;;;;;;6315504;22;20005;-93
2022/10/31 11:37:19;;;;;;;11.02;5.18;;;;;;;;;;6314529;22;20030;-94
2022/10/31 11:39:52;;;;;;;8.75;4.47;;;;;;;;;;6314556;22;20002;-94
2022/10/31 11:42:19;;;;;;;9.95;5.63;;;;;;;;;;6313536;22;20011;-94
2022/10/31 11:44:45;;;;;;;10.48;6.05;;;;;;;;;;6313867;22;20014;-91
2022/10/31 11:47:14;;;;;;;8.85;4.95;;;;;;;;;;6315501;22;20097;-95
2022/10/31 11:49:41;;;;;;;9.05;4.70;;;;;;;;;;6314203;22;20302;-96
2022/10/31 11:52:20;;;;;;;10.57;4.85;;;;;;;;;;6314530;22;20090;-96
2022/10/31 11:54:49;;;;;;;8.73;4.78;;;;;;;;;;6313879;22;20113;-94
2022/10/31 11:57:22;;;;;;;8.13;4.63;;;;;;;;;;6315025;22;20083;-94
2022/10/31 11:59:55;;;;;;;8.27;4.82;;;;;;;;;;6314513;22;20011;-95
2022/10/31 12:02:24;;;;;;;10.23;4.97;;;;;;;;;;6314383;22;19994;-95
2022/10/31 12:05:00;;;;;;;8.85;5.30;;;;;;;;;;6315156;22;20010;-92
2022/10/31 12:07:26;;;;;;;7.93;4.60;;;;;;;;;;6314055;22;20010;-91
2022/10/31 12:09:52;;;;;;;12.15;5.45;;;;;;;;;;6336966;22;20002;-91
2022/10/31 12:12:18;;;;;;;10.98;5.10;;;;;;;;;;6283254;22;20007;-94
2022/10/31 12:15:03;;;;;;;6.97;4.55;;;;;;;;;;6284795;22;19999;-91
2022/10/31 12:17:30;;;;;;;8.23;4.53;;;;;;;;;;6313476;22;20324;-94
2022/10/31 12:22:41;;;;;;;12.32;6.07;;;;;;;;;;6340522;22;20045;-94
2022/10/31 12:25:30;;;;;;;10.20;6.00;;;;;;;;;;6316013;22;20007;-96
2022/10/31 12:28:00;;;;;;;10.07;5.97;;;;;;;;;;6284450;22;20015;-95
2022/10/31 12:30:49;;;;;;;9.80;5.15;;;;;;;;;;6281689;22;20003;-91
2022/10/31 12:33:30;;;;;;;9.70;4.93;;;;;;;;;;6293125;22;20010;-95
2022/10/31 12:36:02;;;;;;;10.38;6.00;;;;;;;;;;6281584;22;20010;-91
2022/10/31 12:38:28;;;;;;;8.77;5.43;;;;;;;;;;6282817;22;19999;-90
2022/10/31 12:41:24;;;;;;;11.68;5.07;;;;;;;;;;6281814;22;19999;-93
2022/10/31 12:44:06;;;;;;;10.23;5.15;;;;;;;;;;6174895;22;20001;-89
2022/10/31 12:46:54;;;;;;;8.02;4.78;;;;;;;;;;6281558;22;20010;-89
2022/10/31 12:49:28;;;;;;;9.90;5.47;;;;;;;;;;6282590;22;20379;-93
2022/10/31 12:51:58;;;;;;;10.18;5.40;;;;;;;;;;6283157;22;20375;-91
2022/10/31 12:54:36;;;;;;;12.65;5.78;;;;;;;;;;6281588;22;20014;-88
2022/10/31 12:57:06;;;;;;;11.57;5.70;;;;;;;;;;6281842;22;20003;-88
2022/10/31 12:59:35;;;;;;;11.60;5.70;;;;;;;;;;6281170;22;20011;-91
2022/10/31 13:02:04;;;;;;;10.00;5.40;;;;;;;;;;6281731;22;20010;-92
2022/10/31 13:04:30;;;;;;;8.75;5.30;;;;;;;;;;6282258;22;20421;-88
2022/10/31 13:07:00;;;;;;;10.10;4.78;;;;;;;;;;6281358;22;20019;-91
2022/10/31 13:09:30;;;;;;;8.85;4.95;;;;;;;;;;6282465;22;20003;-89
2022/10/31 13:12:05;;;;;;;11.15;5.40;;;;;;;;;;6285889;22;20090;-91
2022/10/31 13:14:34;;;;;;;9.20;5.50;;;;;;;;;;6280697;22;20464;-90
2022/10/31 13:17:01;;;;;;;9.38;5.00;;;;;;;;;;6281311;22;20007;-87
2022/10/31 13:19:44;;;;;;;10.57;5.05;;;;;;;;;;6281261;22;20413;-90
2022/10/31 13:22:13;;;;;;;13.30;5.47;;;;;;;;;;6282349;22;20003;-94
2022/10/31 13:24:39;;;;;;;9.00;5.03;;;;;;;;;;6282059;22;20286;-94
2022/10/31 13:27:14;;;;;;;10.07;6.10;;;;;;;;;;6303773;22;20019;-92
2022/10/31 13:29:44;;;;;;;9.23;5.57;;;;;;;;;;6312912;22;20007;-94
2022/10/31 13:32:11;;;;;;;11.20;5.47;;;;;;;;;;6312760;22;20003;-90
2022/10/31 13:34:40;;;;;;;11.43;5.95;;;;;;;;;;6312785;22;20054;-89
2022/10/31 13:37:27;;;;;;;12.32;6.45;;;;;;;;;;6311851;22;20033;-90
2022/10/31 13:39:53;;;;;;;11.07;5.80;;;;;;;;;;6312675;22;20029;-94
2022/10/31 13:42:26;;;;;;;13.05;5.97;;;;;;;;;;6312732;22;19999;-90
2022/10/31 13:44:52;;;;;;;12.88;6.93;;;;;;;;;;6312172;22;20063;-91
2022/10/31 13:47:28;;;;;;;11.07;6.85;;;;;;;;;;6312032;22;20011;-87
2022/10/31 13:50:18;;;;;;;12.18;5.80;;;;;;;;;;6339756;22;20003;-89
2022/10/31 13:52:53;;;;;;;13.20;6.38;;;;;;;;;;6313608;22;20014;-96
2022/10/31 13:55:35;;;;;;;11.90;6.43;;;;;;;;;;6314504;22;20003;-94
2022/10/31 13:58:05;;;;;;;9.70;5.60;;;;;;;;;;6314289;22;20003;-96
2022/10/31 14:00:34;;;;;;;10.57;5.55;;;;;;;;;;6344605;22;20003;-95
2022/10/31 14:03:04;;;;;;;11.40;5.63;;;;;;;;;;6319955;22;19998;-92
2022/10/31 14:05:34;;;;;;;12.98;5.97;;;;;;;;;;6313459;22;20081;-96
2022/10/31 14:08:05;;;;;;;10.55;6.03;;;;;;;;;;6314273;22;20018;-95
2022/10/31 14:10:36;;;;;;;10.32;5.70;;;;;;;;;;6315752;22;19999;-94
2022/10/31 14:13:08;;;;;;;11.98;6.07;;;;;;;;;;6315473;22;20037;-96
2022/10/31 14:15:36;;;;;;;12.00;6.22;;;;;;;;;;6315797;22;20044;-96
2022/10/31 14:18:05;;;;;;;14.85;7.35;;;;;;;;;;6317179;22;20003;-94
2022/10/31 14:20:34;;;;;;;13.07;6.95;;;;;;;;;;6315074;22;20014;-93
2022/10/31 14:23:11;;;;;;;13.25;6.90;;;;;;;;;;6314379;22;20003;-92
2022/10/31 14:25:37;;;;;;;11.55;6.10;;;;;;;;;;6314936;22;20028;-96
2022/10/31 14:28:18;;;;;;;11.80;6.63;;;;;;;;;;6315173;22;20021;-93
2022/10/31 14:30:52;;;;;;;13.55;7.18;;;;;;;;;;6315034;22;20005;-96
2022/10/31 14:33:20;;;;;;;14.75;6.57;;;;;;;;;;6315112;22;20003;-93
2022/10/31 14:36:09;;;;;;;11.75;5.88;;;;;;;;;;6314014;22;20045;-96
2022/10/31 14:38:38;;;;;;;13.63;6.50;;;;;;;;;;6314580;22;20010;-96
2022/10/31 14:41:22;;;;;;;13.27;7.35;;;;;;;;;;6313681;22;20007;-95
2022/10/31 14:43:49;;;;;;;14.13;6.60;;;;;;;;;;6315358;22;20081;-94
2022/10/31 14:46:24;;;;;;;15.52;7.18;;;;;;;;;;6344471;22;19999;-95
2022/10/31 14:48:53;;;;;;;15.55;6.70;;;;;;;;;;6314302;22;20014;-95
2022/10/31 14:51:21;;;;;;;14.68;7.43;;;;;;;;;;6315193;22;20062;-95
2022/10/31 14:53:49;;;;;;;13.13;7.38;;;;;;;;;;6313366;22;20420;-94
2022/10/31 14:56:22;;;;;;;14.10;7.13;;;;;;;;;;6313758;22;20003;-93
2022/10/31 14:58:48;;;;;;;12.35;6.10;;;;;;;;;;6314336;22;19999;-95
2022/10/31 15:01:27;;;;;;;12.52;6.18;;;;;;;;;;6314722;22;20436;-95
2022/10/31 15:03:55;;;;;;;16.77;7.40;;;;;;;;;;6313983;22;20336;-95